CheckWX is a tool to help pilots better visualize weather data.  It is not intended as a substitute for an official pre-flight weather briefing.

04:21:51 UTC

CYGH METAR
Fort Good Hope Airport
Fort Good Hope, Canada
Current

5 hours ago

CYGH 242300Z VRB02KT 1/4SM SN VV011 M07/M09 A3027 RMK SN8 SNW CVR/MUCH LOOSE LAST STFD OBS/NEXT OBS 251300UTC SLP259
Observed
Apr-24 @ 23:00 UTC
Wind
  • Variable at 2 KTS
Visibility
1/4 SM
Flight Rules
LIFR
Conditions
Snow
Cloud Levels
  • Vertical visibility at 1,100' AGL
Temperature
-7°C / 19°F
Dewpoint
-9°C / 16°F
Humidity
86%
Altimeter
30.27" Hg
Pressure
1025.02 hPa
Previous

6 hours ago

CYGH 242200Z 33005KT 310V010 3/4SM -SN BKN013 OVC025 M07/M10 A3024 RMK SN6SC1SC1 SLP252
Observed
Apr-24 @ 22:00 UTC
Wind
  • 330° at 5 KTS
Visibility
3/4 SM
Flight Rules
LIFR
Conditions
Light Snow
Cloud Levels
  • Broken at 1,300' AGL
  • Overcast at 2,500' AGL
Temperature
-7°C / 19°F
Dewpoint
-10°C / 14°F
Humidity
79%
Altimeter
30.24" Hg
Pressure
1024.02 hPa
Previous

7 hours ago

CYGH 242100Z 34006KT 3/4SM -SN OVC025 M07/M10 A3022 RMK SN6SC2 SLP244
Observed
Apr-24 @ 21:00 UTC
Wind
  • 340° at 6 KTS
Visibility
3/4 SM
Flight Rules
LIFR
Conditions
Light Snow
Cloud Levels
  • Overcast at 2,500' AGL
Temperature
-7°C / 19°F
Dewpoint
-10°C / 14°F
Humidity
79%
Altimeter
30.22" Hg
Pressure
1023.42 hPa